sensor_id;sensor_type;location;lat;lon;timestamp;P1;durP1;ratioP1;P2;durP2;ratioP2
7051;SDS011;3567;52.444;13.556;2022-10-29T00:00:26;8.77;;;3.78;;
7051;SDS011;3567;52.444;13.556;2022-10-29T00:02:52;9.15;;;3.65;;
7051;SDS011;3567;52.444;13.556;2022-10-29T00:05:17;6.95;;;3.65;;
7051;SDS011;3567;52.444;13.556;2022-10-29T00:07:42;14.98;;;4.03;;
7051;SDS011;3567;52.444;13.556;2022-10-29T00:10:08;13.82;;;3.97;;
7051;SDS011;3567;52.444;13.556;2022-10-29T00:12:33;8.40;;;3.95;;
7051;SDS011;3567;52.444;13.556;2022-10-29T00:14:59;6.53;;;3.33;;
7051;SDS011;3567;52.444;13.556;2022-10-29T00:17:24;13.00;;;4.25;;
7051;SDS011;3567;52.444;13.556;2022-10-29T00:19:50;11.32;;;3.58;;
7051;SDS011;3567;52.444;13.556;2022-10-29T00:22:15;8.27;;;3.45;;
7051;SDS011;3567;52.444;13.556;2022-10-29T00:24:40;11.93;;;3.80;;
7051;SDS011;3567;52.444;13.556;2022-10-29T00:27:06;8.27;;;3.97;;
7051;SDS011;3567;52.444;13.556;2022-10-29T00:29:31;8.60;;;3.58;;
7051;SDS011;3567;52.444;13.556;2022-10-29T00:31:56;9.65;;;4.05;;
7051;SDS011;3567;52.444;13.556;2022-10-29T00:34:22;6.28;;;3.47;;
7051;SDS011;3567;52.444;13.556;2022-10-29T00:36:47;7.65;;;4.05;;
7051;SDS011;3567;52.444;13.556;2022-10-29T00:39:15;10.45;;;4.35;;
7051;SDS011;3567;52.444;13.556;2022-10-29T00:41:41;11.77;;;4.13;;
7051;SDS011;3567;52.444;13.556;2022-10-29T00:46:39;5.47;;;3.88;;
7051;SDS011;3567;52.444;13.556;2022-10-29T00:49:07;10.65;;;4.00;;
7051;SDS011;3567;52.444;13.556;2022-10-29T00:51:33;12.02;;;4.68;;
7051;SDS011;3567;52.444;13.556;2022-10-29T00:54:01;7.70;;;3.95;;
7051;SDS011;3567;52.444;13.556;2022-10-29T00:56:31;12.77;;;4.05;;
7051;SDS011;3567;52.444;13.556;2022-10-29T00:58:59;9.60;;;4.30;;
7051;SDS011;3567;52.444;13.556;2022-10-29T01:01:25;6.78;;;4.18;;
7051;SDS011;3567;52.444;13.556;2022-10-29T01:03:51;7.50;;;3.85;;
7051;SDS011;3567;52.444;13.556;2022-10-29T01:06:18;15.75;;;5.28;;
7051;SDS011;3567;52.444;13.556;2022-10-29T01:08:43;15.77;;;5.30;;
7051;SDS011;3567;52.444;13.556;2022-10-29T01:27:50;27.60;;;4.70;;
7051;SDS011;3567;52.444;13.556;2022-10-29T01:30:28;7.13;;;4.07;;
7051;SDS011;3567;52.444;13.556;2022-10-29T01:33:10;10.40;;;4.15;;
7051;SDS011;3567;52.444;13.556;2022-10-29T01:35:57;12.25;;;4.90;;
7051;SDS011;3567;52.444;13.556;2022-10-29T01:38:38;11.73;;;4.40;;
7051;SDS011;3567;52.444;13.556;2022-10-29T01:41:15;8.77;;;4.07;;
7051;SDS011;3567;52.444;13.556;2022-10-29T01:46:34;8.77;;;3.95;;
7051;SDS011;3567;52.444;13.556;2022-10-29T01:49:06;12.18;;;4.80;;
7051;SDS011;3567;52.444;13.556;2022-10-29T01:51:49;11.77;;;4.18;;
7051;SDS011;3567;52.444;13.556;2022-10-29T01:54:16;15.18;;;4.70;;
7051;SDS011;3567;52.444;13.556;2022-10-29T01:56:41;17.98;;;4.88;;
7051;SDS011;3567;52.444;13.556;2022-10-29T01:59:08;10.90;;;4.53;;
7051;SDS011;3567;52.444;13.556;2022-10-29T02:04:34;8.38;;;4.93;;
7051;SDS011;3567;52.444;13.556;2022-10-29T02:09:34;10.55;;;4.85;;
7051;SDS011;3567;52.444;13.556;2022-10-29T02:12:22;18.60;;;4.70;;
7051;SDS011;3567;52.444;13.556;2022-10-29T02:15:02;9.40;;;4.57;;
7051;SDS011;3567;52.444;13.556;2022-10-29T02:17:33;10.75;;;5.65;;
7051;SDS011;3567;52.444;13.556;2022-10-29T02:20:03;11.55;;;4.80;;
7051;SDS011;3567;52.444;13.556;2022-10-29T02:22:30;7.80;;;5.20;;
7051;SDS011;3567;52.444;13.556;2022-10-29T02:24:55;11.63;;;4.95;;
7051;SDS011;3567;52.444;13.556;2022-10-29T02:27:20;12.82;;;4.85;;
7051;SDS011;3567;52.444;13.556;2022-10-29T02:29:46;17.83;;;5.32;;
7051;SDS011;3567;52.444;13.556;2022-10-29T02:32:11;10.07;;;4.72;;
7051;SDS011;3567;52.444;13.556;2022-10-29T02:34:36;9.82;;;5.10;;
7051;SDS011;3567;52.444;13.556;2022-10-29T02:37:02;10.25;;;4.05;;
7051;SDS011;3567;52.444;13.556;2022-10-29T02:39:27;10.80;;;5.05;;
7051;SDS011;3567;52.444;13.556;2022-10-29T02:41:52;17.25;;;5.68;;
7051;SDS011;3567;52.444;13.556;2022-10-29T02:44:18;11.32;;;5.32;;
7051;SDS011;3567;52.444;13.556;2022-10-29T02:46:43;11.77;;;5.45;;
7051;SDS011;3567;52.444;13.556;2022-10-29T02:49:09;12.00;;;5.97;;
7051;SDS011;3567;52.444;13.556;2022-10-29T02:51:34;12.13;;;6.35;;
7051;SDS011;3567;52.444;13.556;2022-10-29T02:53:59;10.57;;;5.88;;
7051;SDS011;3567;52.444;13.556;2022-10-29T02:56:25;14.10;;;6.32;;
7051;SDS011;3567;52.444;13.556;2022-10-29T02:58:50;14.05;;;6.28;;
7051;SDS011;3567;52.444;13.556;2022-10-29T03:01:15;15.77;;;6.85;;
7051;SDS011;3567;52.444;13.556;2022-10-29T03:03:41;21.30;;;6.60;;
7051;SDS011;3567;52.444;13.556;2022-10-29T03:06:15;16.05;;;6.10;;
7051;SDS011;3567;52.444;13.556;2022-10-29T03:08:42;11.70;;;6.03;;
7051;SDS011;3567;52.444;13.556;2022-10-29T03:11:08;14.70;;;5.55;;
7051;SDS011;3567;52.444;13.556;2022-10-29T03:13:33;15.63;;;6.82;;
7051;SDS011;3567;52.444;13.556;2022-10-29T03:15:59;17.35;;;6.13;;
7051;SDS011;3567;52.444;13.556;2022-10-29T03:18:24;9.52;;;5.20;;
7051;SDS011;3567;52.444;13.556;2022-10-29T03:20:49;13.85;;;6.00;;
7051;SDS011;3567;52.444;13.556;2022-10-29T03:23:15;10.05;;;5.78;;
7051;SDS011;3567;52.444;13.556;2022-10-29T03:25:40;13.55;;;5.55;;
7051;SDS011;3567;52.444;13.556;2022-10-29T03:28:05;13.63;;;6.38;;
7051;SDS011;3567;52.444;13.556;2022-10-29T03:30:31;11.70;;;5.60;;
7051;SDS011;3567;52.444;13.556;2022-10-29T03:32:57;10.80;;;6.63;;
7051;SDS011;3567;52.444;13.556;2022-10-29T03:35:22;15.00;;;5.90;;
7051;SDS011;3567;52.444;13.556;2022-10-29T03:37:48;14.93;;;5.97;;
7051;SDS011;3567;52.444;13.556;2022-10-29T03:40:14;7.88;;;5.30;;
7051;SDS011;3567;52.444;13.556;2022-10-29T03:42:41;13.57;;;6.25;;
7051;SDS011;3567;52.444;13.556;2022-10-29T03:45:07;23.95;;;6.60;;
7051;SDS011;3567;52.444;13.556;2022-10-29T03:47:33;9.60;;;5.82;;
7051;SDS011;3567;52.444;13.556;2022-10-29T03:49:59;11.07;;;5.85;;
7051;SDS011;3567;52.444;13.556;2022-10-29T03:52:24;15.20;;;5.88;;
7051;SDS011;3567;52.444;13.556;2022-10-29T03:54:50;14.00;;;6.18;;
7051;SDS011;3567;52.444;13.556;2022-10-29T03:57:15;14.82;;;6.65;;
7051;SDS011;3567;52.444;13.556;2022-10-29T03:59:40;11.85;;;5.60;;
7051;SDS011;3567;52.444;13.556;2022-10-29T04:02:06;12.07;;;5.68;;
7051;SDS011;3567;52.444;13.556;2022-10-29T04:04:31;11.25;;;5.32;;
7051;SDS011;3567;52.444;13.556;2022-10-29T04:06:56;15.82;;;5.95;;
7051;SDS011;3567;52.444;13.556;2022-10-29T04:09:22;17.23;;;5.80;;
7051;SDS011;3567;52.444;13.556;2022-10-29T04:11:47;16.27;;;7.38;;
7051;SDS011;3567;52.444;13.556;2022-10-29T04:14:12;13.75;;;5.90;;
7051;SDS011;3567;52.444;13.556;2022-10-29T04:16:38;11.65;;;5.47;;
7051;SDS011;3567;52.444;13.556;2022-10-29T04:19:03;15.88;;;6.10;;
7051;SDS011;3567;52.444;13.556;2022-10-29T04:21:28;12.00;;;6.43;;
7051;SDS011;3567;52.444;13.556;2022-10-29T04:23:54;11.88;;;6.20;;
7051;SDS011;3567;52.444;13.556;2022-10-29T04:26:19;12.23;;;5.38;;
7051;SDS011;3567;52.444;13.556;2022-10-29T04:28:48;21.67;;;5.43;;
7051;SDS011;3567;52.444;13.556;2022-10-29T04:31:15;14.30;;;6.65;;
7051;SDS011;3567;52.444;13.556;2022-10-29T04:33:40;12.07;;;6.75;;
7051;SDS011;3567;52.444;13.556;2022-10-29T04:36:06;13.68;;;6.28;;
7051;SDS011;3567;52.444;13.556;2022-10-29T04:38:32;15.98;;;6.38;;
7051;SDS011;3567;52.444;13.556;2022-10-29T04:40:57;10.50;;;6.38;;
7051;SDS011;3567;52.444;13.556;2022-10-29T04:43:23;15.02;;;6.82;;
7051;SDS011;3567;52.444;13.556;2022-10-29T04:45:52;16.13;;;7.22;;
7051;SDS011;3567;52.444;13.556;2022-10-29T04:48:18;9.43;;;6.50;;
7051;SDS011;3567;52.444;13.556;2022-10-29T04:50:45;8.82;;;6.03;;
7051;SDS011;3567;52.444;13.556;2022-10-29T04:53:10;9.73;;;6.00;;
7051;SDS011;3567;52.444;13.556;2022-10-29T04:55:36;10.70;;;5.68;;
7051;SDS011;3567;52.444;13.556;2022-10-29T04:58:04;8.73;;;5.15;;
7051;SDS011;3567;52.444;13.556;2022-10-29T05:00:30;10.05;;;5.75;;
7051;SDS011;3567;52.444;13.556;2022-10-29T05:02:56;12.57;;;6.40;;
7051;SDS011;3567;52.444;13.556;2022-10-29T05:05:22;12.77;;;5.88;;
7051;SDS011;3567;52.444;13.556;2022-10-29T05:07:47;15.43;;;5.78;;
7051;SDS011;3567;52.444;13.556;2022-10-29T05:10:13;11.10;;;6.90;;
7051;SDS011;3567;52.444;13.556;2022-10-29T05:12:38;9.25;;;6.25;;
7051;SDS011;3567;52.444;13.556;2022-10-29T05:15:04;11.25;;;6.13;;
7051;SDS011;3567;52.444;13.556;2022-10-29T05:17:30;13.15;;;6.93;;
7051;SDS011;3567;52.444;13.556;2022-10-29T05:19:56;15.25;;;6.47;;
7051;SDS011;3567;52.444;13.556;2022-10-29T05:22:21;12.05;;;6.05;;
7051;SDS011;3567;52.444;13.556;2022-10-29T05:24:46;11.70;;;6.05;;
7051;SDS011;3567;52.444;13.556;2022-10-29T05:27:12;11.68;;;6.75;;
7051;SDS011;3567;52.444;13.556;2022-10-29T05:29:37;12.48;;;6.60;;
7051;SDS011;3567;52.444;13.556;2022-10-29T05:32:02;15.68;;;6.43;;
7051;SDS011;3567;52.444;13.556;2022-10-29T05:34:28;14.20;;;7.43;;
7051;SDS011;3567;52.444;13.556;2022-10-29T05:36:53;17.65;;;7.72;;
7051;SDS011;3567;52.444;13.556;2022-10-29T05:39:19;13.40;;;8.00;;
7051;SDS011;3567;52.444;13.556;2022-10-29T05:41:44;25.60;;;16.60;;
7051;SDS011;3567;52.444;13.556;2022-10-29T05:44:11;25.20;;;11.38;;
7051;SDS011;3567;52.444;13.556;2022-10-29T05:46:36;14.32;;;7.78;;
7051;SDS011;3567;52.444;13.556;2022-10-29T05:49:02;13.90;;;8.80;;
7051;SDS011;3567;52.444;13.556;2022-10-29T05:51:27;15.50;;;7.15;;
7051;SDS011;3567;52.444;13.556;2022-10-29T05:53:53;8.60;;;6.80;;
7051;SDS011;3567;52.444;13.556;2022-10-29T05:56:18;16.55;;;9.45;;
7051;SDS011;3567;52.444;13.556;2022-10-29T05:58:43;14.93;;;7.68;;
7051;SDS011;3567;52.444;13.556;2022-10-29T06:01:09;13.43;;;8.95;;
7051;SDS011;3567;52.444;13.556;2022-10-29T06:03:36;18.10;;;8.65;;
7051;SDS011;3567;52.444;13.556;2022-10-29T06:06:02;18.67;;;7.90;;
7051;SDS011;3567;52.444;13.556;2022-10-29T06:08:28;17.67;;;11.48;;
7051;SDS011;3567;52.444;13.556;2022-10-29T06:10:53;19.13;;;9.48;;
7051;SDS011;3567;52.444;13.556;2022-10-29T06:13:19;13.27;;;8.40;;
7051;SDS011;3567;52.444;13.556;2022-10-29T06:15:46;16.85;;;7.57;;
7051;SDS011;3567;52.444;13.556;2022-10-29T06:18:13;16.00;;;7.78;;
7051;SDS011;3567;52.444;13.556;2022-10-29T06:20:39;9.73;;;6.57;;
7051;SDS011;3567;52.444;13.556;2022-10-29T06:23:04;15.05;;;8.05;;
7051;SDS011;3567;52.444;13.556;2022-10-29T06:25:30;19.77;;;7.35;;
7051;SDS011;3567;52.444;13.556;2022-10-29T06:28:05;13.35;;;7.60;;
7051;SDS011;3567;52.444;13.556;2022-10-29T06:30:33;14.80;;;7.32;;
7051;SDS011;3567;52.444;13.556;2022-10-29T06:32:59;13.27;;;8.05;;
7051;SDS011;3567;52.444;13.556;2022-10-29T06:35:25;17.90;;;8.60;;
7051;SDS011;3567;52.444;13.556;2022-10-29T06:37:51;17.40;;;8.65;;
7051;SDS011;3567;52.444;13.556;2022-10-29T06:40:16;12.55;;;7.93;;
7051;SDS011;3567;52.444;13.556;2022-10-29T06:42:42;13.90;;;8.07;;
7051;SDS011;3567;52.444;13.556;2022-10-29T06:45:07;14.32;;;7.85;;
7051;SDS011;3567;52.444;13.556;2022-10-29T06:47:43;16.95;;;7.95;;
7051;SDS011;3567;52.444;13.556;2022-10-29T06:50:10;19.80;;;8.10;;
7051;SDS011;3567;52.444;13.556;2022-10-29T06:52:37;15.68;;;7.35;;
7051;SDS011;3567;52.444;13.556;2022-10-29T06:55:03;17.67;;;9.52;;
7051;SDS011;3567;52.444;13.556;2022-10-29T06:57:30;21.70;;;9.43;;
7051;SDS011;3567;52.444;13.556;2022-10-29T06:59:56;19.65;;;8.43;;
7051;SDS011;3567;52.444;13.556;2022-10-29T07:02:21;14.68;;;7.82;;
7051;SDS011;3567;52.444;13.556;2022-10-29T07:04:48;24.20;;;7.85;;
7051;SDS011;3567;52.444;13.556;2022-10-29T07:07:13;16.98;;;8.15;;
7051;SDS011;3567;52.444;13.556;2022-10-29T07:09:39;14.43;;;7.50;;
7051;SDS011;3567;52.444;13.556;2022-10-29T07:12:06;15.00;;;7.22;;
7051;SDS011;3567;52.444;13.556;2022-10-29T07:14:32;18.10;;;9.55;;
7051;SDS011;3567;52.444;13.556;2022-10-29T07:16:57;16.98;;;8.13;;
7051;SDS011;3567;52.444;13.556;2022-10-29T07:19:23;13.15;;;7.72;;
7051;SDS011;3567;52.444;13.556;2022-10-29T07:21:48;13.73;;;6.53;;
7051;SDS011;3567;52.444;13.556;2022-10-29T07:24:13;10.88;;;5.75;;
7051;SDS011;3567;52.444;13.556;2022-10-29T07:26:41;14.77;;;6.65;;
7051;SDS011;3567;52.444;13.556;2022-10-29T07:29:07;11.48;;;7.47;;
7051;SDS011;3567;52.444;13.556;2022-10-29T07:31:32;12.95;;;7.20;;
7051;SDS011;3567;52.444;13.556;2022-10-29T07:33:58;16.63;;;7.10;;
7051;SDS011;3567;52.444;13.556;2022-10-29T07:36:23;16.95;;;8.38;;
7051;SDS011;3567;52.444;13.556;2022-10-29T07:38:48;12.38;;;7.05;;
7051;SDS011;3567;52.444;13.556;2022-10-29T07:41:14;9.88;;;6.40;;
7051;SDS011;3567;52.444;13.556;2022-10-29T07:43:39;9.60;;;6.38;;
7051;SDS011;3567;52.444;13.556;2022-10-29T07:46:05;9.18;;;5.63;;
7051;SDS011;3567;52.444;13.556;2022-10-29T07:48:30;12.30;;;6.38;;
7051;SDS011;3567;52.444;13.556;2022-10-29T07:50:59;9.65;;;5.72;;
7051;SDS011;3567;52.444;13.556;2022-10-29T07:53:25;12.23;;;6.13;;
7051;SDS011;3567;52.444;13.556;2022-10-29T07:55:52;13.32;;;6.70;;
7051;SDS011;3567;52.444;13.556;2022-10-29T07:58:18;13.68;;;6.43;;
7051;SDS011;3567;52.444;13.556;2022-10-29T08:00:44;12.38;;;5.63;;
7051;SDS011;3567;52.444;13.556;2022-10-29T08:03:09;14.15;;;6.43;;
7051;SDS011;3567;52.444;13.556;2022-10-29T08:05:36;12.85;;;6.80;;
7051;SDS011;3567;52.444;13.556;2022-10-29T08:08:02;12.80;;;6.65;;
7051;SDS011;3567;52.444;13.556;2022-10-29T08:10:28;9.63;;;5.95;;
7051;SDS011;3567;52.444;13.556;2022-10-29T08:12:56;12.80;;;6.20;;
7051;SDS011;3567;52.444;13.556;2022-10-29T08:15:22;10.65;;;5.88;;
7051;SDS011;3567;52.444;13.556;2022-10-29T08:17:48;10.63;;;5.78;;
7051;SDS011;3567;52.444;13.556;2022-10-29T08:20:14;9.88;;;5.55;;
7051;SDS011;3567;52.444;13.556;2022-10-29T08:22:40;13.45;;;6.45;;
7051;SDS011;3567;52.444;13.556;2022-10-29T08:25:06;17.33;;;6.45;;
7051;SDS011;3567;52.444;13.556;2022-10-29T08:27:32;15.68;;;5.75;;
7051;SDS011;3567;52.444;13.556;2022-10-29T08:29:57;12.88;;;5.93;;
7051;SDS011;3567;52.444;13.556;2022-10-29T08:32:23;14.85;;;6.75;;
7051;SDS011;3567;52.444;13.556;2022-10-29T08:34:48;11.90;;;6.18;;
7051;SDS011;3567;52.444;13.556;2022-10-29T08:37:13;14.38;;;6.13;;
7051;SDS011;3567;52.444;13.556;2022-10-29T08:39:39;15.07;;;5.82;;
7051;SDS011;3567;52.444;13.556;2022-10-29T08:50:23;13.88;;;5.60;;
7051;SDS011;3567;52.444;13.556;2022-10-29T08:52:53;12.98;;;5.35;;
7051;SDS011;3567;52.444;13.556;2022-10-29T08:55:21;13.82;;;6.95;;
7051;SDS011;3567;52.444;13.556;2022-10-29T08:57:57;10.27;;;5.28;;
7051;SDS011;3567;52.444;13.556;2022-10-29T09:00:30;10.13;;;6.35;;
7051;SDS011;3567;52.444;13.556;2022-10-29T09:02:58;13.18;;;5.82;;
7051;SDS011;3567;52.444;13.556;2022-10-29T09:08:21;18.35;;;6.85;;
7051;SDS011;3567;52.444;13.556;2022-10-29T09:22:01;23.60;;;6.88;;
7051;SDS011;3567;52.444;13.556;2022-10-29T09:27:56;12.93;;;5.57;;
7051;SDS011;3567;52.444;13.556;2022-10-29T09:30:37;14.70;;;5.85;;
7051;SDS011;3567;52.444;13.556;2022-10-29T09:33:21;18.25;;;6.60;;
7051;SDS011;3567;52.444;13.556;2022-10-29T09:35:51;12.32;;;6.25;;
7051;SDS011;3567;52.444;13.556;2022-10-29T09:38:23;11.77;;;5.97;;
7051;SDS011;3567;52.444;13.556;2022-10-29T09:40:52;9.77;;;5.65;;
7051;SDS011;3567;52.444;13.556;2022-10-29T09:45:58;14.40;;;5.35;;
7051;SDS011;3567;52.444;13.556;2022-10-29T09:53:48;9.57;;;4.63;;
7051;SDS011;3567;52.444;13.556;2022-10-29T09:56:14;10.43;;;4.05;;
7051;SDS011;3567;52.444;13.556;2022-10-29T09:58:40;11.88;;;4.50;;
7051;SDS011;3567;52.444;13.556;2022-10-29T10:01:10;13.50;;;5.15;;
7051;SDS011;3567;52.444;13.556;2022-10-29T10:03:37;20.02;;;6.43;;
7051;SDS011;3567;52.444;13.556;2022-10-29T10:06:10;11.45;;;5.18;;
7051;SDS011;3567;52.444;13.556;2022-10-29T10:11:32;13.02;;;5.82;;
7051;SDS011;3567;52.444;13.556;2022-10-29T10:13:58;13.75;;;5.63;;
7051;SDS011;3567;52.444;13.556;2022-10-29T10:16:28;12.95;;;4.97;;
7051;SDS011;3567;52.444;13.556;2022-10-29T10:18:56;15.07;;;5.25;;
7051;SDS011;3567;52.444;13.556;2022-10-29T10:23:51;10.00;;;4.63;;
7051;SDS011;3567;52.444;13.556;2022-10-29T10:26:28;17.45;;;5.28;;
7051;SDS011;3567;52.444;13.556;2022-10-29T10:29:22;8.80;;;5.20;;
7051;SDS011;3567;52.444;13.556;2022-10-29T10:32:07;8.65;;;4.22;;
7051;SDS011;3567;52.444;13.556;2022-10-29T10:34:36;14.13;;;5.80;;
7051;SDS011;3567;52.444;13.556;2022-10-29T10:39:44;18.00;;;4.78;;
7051;SDS011;3567;52.444;13.556;2022-10-29T10:42:21;13.05;;;4.80;;
7051;SDS011;3567;52.444;13.556;2022-10-29T10:47:45;10.32;;;4.22;;
7051;SDS011;3567;52.444;13.556;2022-10-29T10:50:18;14.82;;;5.47;;
7051;SDS011;3567;52.444;13.556;2022-10-29T10:52:50;15.30;;;5.15;;
7051;SDS011;3567;52.444;13.556;2022-10-29T10:55:28;11.07;;;4.85;;
7051;SDS011;3567;52.444;13.556;2022-10-29T11:00:38;8.90;;;4.32;;
7051;SDS011;3567;52.444;13.556;2022-10-29T11:05:43;8.98;;;4.22;;
7051;SDS011;3567;52.444;13.556;2022-10-29T11:08:22;8.40;;;4.72;;
7051;SDS011;3567;52.444;13.556;2022-10-29T11:11:20;11.35;;;3.95;;
7051;SDS011;3567;52.444;13.556;2022-10-29T11:13:49;10.38;;;4.40;;
7051;SDS011;3567;52.444;13.556;2022-10-29T11:16:19;13.85;;;4.70;;
7051;SDS011;3567;52.444;13.556;2022-10-29T11:21:39;11.85;;;5.07;;
7051;SDS011;3567;52.444;13.556;2022-10-29T11:26:39;9.25;;;4.40;;
7051;SDS011;3567;52.444;13.556;2022-10-29T11:32:03;10.00;;;4.80;;
7051;SDS011;3567;52.444;13.556;2022-10-29T11:37:04;10.38;;;5.35;;
7051;SDS011;3567;52.444;13.556;2022-10-29T11:39:44;15.85;;;5.30;;
7051;SDS011;3567;52.444;13.556;2022-10-29T11:42:15;9.30;;;4.68;;
7051;SDS011;3567;52.444;13.556;2022-10-29T11:44:40;11.02;;;4.43;;
7051;SDS011;3567;52.444;13.556;2022-10-29T11:52:12;10.23;;;4.90;;
7051;SDS011;3567;52.444;13.556;2022-10-29T11:57:38;8.98;;;4.75;;
7051;SDS011;3567;52.444;13.556;2022-10-29T12:00:09;9.45;;;5.05;;
7051;SDS011;3567;52.444;13.556;2022-10-29T12:02:43;12.63;;;4.47;;
7051;SDS011;3567;52.444;13.556;2022-10-29T12:14:00;9.20;;;4.68;;
7051;SDS011;3567;52.444;13.556;2022-10-29T12:20:01;11.50;;;5.07;;
7051;SDS011;3567;52.444;13.556;2022-10-29T12:22:12;12.23;;;5.85;;
7051;SDS011;3567;52.444;13.556;2022-10-29T12:25:09;13.15;;;5.68;;
7051;SDS011;3567;52.444;13.556;2022-10-29T12:30:23;11.13;;;4.70;;
7051;SDS011;3567;52.444;13.556;2022-10-29T12:35:35;11.18;;;5.00;;
7051;SDS011;3567;52.444;13.556;2022-10-29T12:40:42;9.98;;;5.47;;
7051;SDS011;3567;52.444;13.556;2022-10-29T12:43:20;16.77;;;5.88;;
7051;SDS011;3567;52.444;13.556;2022-10-29T12:51:27;11.70;;;5.63;;
7051;SDS011;3567;52.444;13.556;2022-10-29T12:56:45;10.25;;;4.90;;
7051;SDS011;3567;52.444;13.556;2022-10-29T13:05:13;8.70;;;5.72;;
7051;SDS011;3567;52.444;13.556;2022-10-29T13:15:38;12.20;;;5.57;;
7051;SDS011;3567;52.444;13.556;2022-10-29T13:18:24;12.75;;;6.18;;
7051;SDS011;3567;52.444;13.556;2022-10-29T13:20:55;15.45;;;5.57;;
7051;SDS011;3567;52.444;13.556;2022-10-29T13:25:47;12.60;;;6.15;;
7051;SDS011;3567;52.444;13.556;2022-10-29T13:30:42;16.55;;;5.97;;
7051;SDS011;3567;52.444;13.556;2022-10-29T13:35:57;11.50;;;6.25;;
7051;SDS011;3567;52.444;13.556;2022-10-29T13:38:42;8.63;;;5.15;;
7051;SDS011;3567;52.444;13.556;2022-10-29T13:41:23;14.85;;;5.05;;
7051;SDS011;3567;52.444;13.556;2022-10-29T13:46:57;12.15;;;4.85;;
7051;SDS011;3567;52.444;13.556;2022-10-29T13:49:37;10.25;;;5.25;;
7051;SDS011;3567;52.444;13.556;2022-10-29T13:57:25;14.57;;;5.68;;
7051;SDS011;3567;52.444;13.556;2022-10-29T13:59:59;15.05;;;6.13;;
7051;SDS011;3567;52.444;13.556;2022-10-29T14:08:15;15.15;;;7.55;;
7051;SDS011;3567;52.444;13.556;2022-10-29T14:10:45;16.17;;;9.35;;
7051;SDS011;3567;52.444;13.556;2022-10-29T14:15:38;13.98;;;5.97;;
7051;SDS011;3567;52.444;13.556;2022-10-29T14:18:23;16.45;;;5.05;;
7051;SDS011;3567;52.444;13.556;2022-10-29T14:20:53;10.98;;;6.80;;
7051;SDS011;3567;52.444;13.556;2022-10-29T14:23:20;15.90;;;6.93;;
7051;SDS011;3567;52.444;13.556;2022-10-29T14:25:49;9.38;;;6.30;;
7051;SDS011;3567;52.444;13.556;2022-10-29T14:30:45;15.02;;;6.90;;
7051;SDS011;3567;52.444;13.556;2022-10-29T14:35:46;15.43;;;6.43;;
7051;SDS011;3567;52.444;13.556;2022-10-29T14:38:11;12.30;;;7.05;;
7051;SDS011;3567;52.444;13.556;2022-10-29T14:40:38;13.48;;;7.90;;
7051;SDS011;3567;52.444;13.556;2022-10-29T14:43:04;12.90;;;7.28;;
7051;SDS011;3567;52.444;13.556;2022-10-29T14:45:29;12.85;;;6.97;;
7051;SDS011;3567;52.444;13.556;2022-10-29T14:47:59;22.92;;;6.72;;
7051;SDS011;3567;52.444;13.556;2022-10-29T14:50:32;14.13;;;6.03;;
7051;SDS011;3567;52.444;13.556;2022-10-29T14:53:02;14.27;;;7.25;;
7051;SDS011;3567;52.444;13.556;2022-10-29T14:55:45;22.23;;;13.68;;
7051;SDS011;3567;52.444;13.556;2022-10-29T14:58:14;17.35;;;10.23;;
7051;SDS011;3567;52.444;13.556;2022-10-29T15:00:55;12.82;;;8.27;;
7051;SDS011;3567;52.444;13.556;2022-10-29T15:03:23;13.52;;;7.53;;
7051;SDS011;3567;52.444;13.556;2022-10-29T15:05:50;16.98;;;10.43;;
7051;SDS011;3567;52.444;13.556;2022-10-29T15:08:17;14.70;;;10.13;;
7051;SDS011;3567;52.444;13.556;2022-10-29T15:10:54;15.98;;;10.18;;
7051;SDS011;3567;52.444;13.556;2022-10-29T15:15:58;18.88;;;10.65;;
7051;SDS011;3567;52.444;13.556;2022-10-29T15:18:26;17.65;;;10.35;;
7051;SDS011;3567;52.444;13.556;2022-10-29T15:20:53;18.33;;;9.27;;
7051;SDS011;3567;52.444;13.556;2022-10-29T15:23:24;17.35;;;9.32;;
7051;SDS011;3567;52.444;13.556;2022-10-29T15:25:51;18.83;;;12.15;;
7051;SDS011;3567;52.444;13.556;2022-10-29T15:28:26;20.67;;;12.57;;
7051;SDS011;3567;52.444;13.556;2022-10-29T15:30:54;18.08;;;11.98;;
7051;SDS011;3567;52.444;13.556;2022-10-29T15:33:21;18.17;;;11.10;;
7051;SDS011;3567;52.444;13.556;2022-10-29T15:35:52;20.83;;;14.27;;
7051;SDS011;3567;52.444;13.556;2022-10-29T15:41:38;18.10;;;13.00;;
7051;SDS011;3567;52.444;13.556;2022-10-29T15:44:24;14.82;;;9.68;;
7051;SDS011;3567;52.444;13.556;2022-10-29T15:46:52;15.38;;;10.25;;
7051;SDS011;3567;52.444;13.556;2022-10-29T15:49:23;20.35;;;9.95;;
7051;SDS011;3567;52.444;13.556;2022-10-29T15:51:52;10.68;;;7.95;;
7051;SDS011;3567;52.444;13.556;2022-10-29T15:54:20;15.13;;;8.43;;
7051;SDS011;3567;52.444;13.556;2022-10-29T15:56:45;14.38;;;8.07;;
7051;SDS011;3567;52.444;13.556;2022-10-29T15:59:12;13.93;;;8.45;;
7051;SDS011;3567;52.444;13.556;2022-10-29T16:01:39;16.05;;;8.80;;
7051;SDS011;3567;52.444;13.556;2022-10-29T16:04:04;16.55;;;8.95;;
7051;SDS011;3567;52.444;13.556;2022-10-29T16:06:30;14.15;;;9.52;;
7051;SDS011;3567;52.444;13.556;2022-10-29T16:08:56;12.70;;;9.25;;
7051;SDS011;3567;52.444;13.556;2022-10-29T16:11:23;16.33;;;9.73;;
7051;SDS011;3567;52.444;13.556;2022-10-29T16:13:49;20.73;;;10.25;;
7051;SDS011;3567;52.444;13.556;2022-10-29T16:16:17;21.75;;;15.10;;
7051;SDS011;3567;52.444;13.556;2022-10-29T16:18:43;20.98;;;11.98;;
7051;SDS011;3567;52.444;13.556;2022-10-29T16:21:14;38.85;;;26.83;;
7051;SDS011;3567;52.444;13.556;2022-10-29T16:23:42;31.92;;;25.02;;
7051;SDS011;3567;52.444;13.556;2022-10-29T16:26:16;31.60;;;24.90;;
7051;SDS011;3567;52.444;13.556;2022-10-29T16:28:43;33.30;;;22.20;;
7051;SDS011;3567;52.444;13.556;2022-10-29T16:31:16;31.85;;;22.02;;
7051;SDS011;3567;52.444;13.556;2022-10-29T16:33:45;23.50;;;16.83;;
7051;SDS011;3567;52.444;13.556;2022-10-29T16:36:11;21.27;;;14.20;;
7051;SDS011;3567;52.444;13.556;2022-10-29T16:38:37;17.75;;;11.65;;
7051;SDS011;3567;52.444;13.556;2022-10-29T16:41:02;24.13;;;14.10;;
7051;SDS011;3567;52.444;13.556;2022-10-29T16:43:28;25.13;;;13.45;;
7051;SDS011;3567;52.444;13.556;2022-10-29T16:45:53;26.98;;;15.90;;
7051;SDS011;3567;52.444;13.556;2022-10-29T16:48:19;27.55;;;17.10;;
7051;SDS011;3567;52.444;13.556;2022-10-29T16:50:44;22.25;;;16.27;;
7051;SDS011;3567;52.444;13.556;2022-10-29T16:53:10;24.40;;;15.70;;
7051;SDS011;3567;52.444;13.556;2022-10-29T16:55:36;19.52;;;14.10;;
7051;SDS011;3567;52.444;13.556;2022-10-29T16:58:13;22.02;;;13.95;;
7051;SDS011;3567;52.444;13.556;2022-10-29T17:00:39;25.77;;;17.40;;
7051;SDS011;3567;52.444;13.556;2022-10-29T17:03:05;24.42;;;15.32;;
7051;SDS011;3567;52.444;13.556;2022-10-29T17:05:34;21.35;;;14.80;;
7051;SDS011;3567;52.444;13.556;2022-10-29T17:08:00;22.42;;;13.90;;
7051;SDS011;3567;52.444;13.556;2022-10-29T17:10:26;22.38;;;13.70;;
7051;SDS011;3567;52.444;13.556;2022-10-29T17:12:51;21.02;;;13.38;;
7051;SDS011;3567;52.444;13.556;2022-10-29T17:15:17;17.00;;;10.95;;
7051;SDS011;3567;52.444;13.556;2022-10-29T17:17:42;20.50;;;13.10;;
7051;SDS011;3567;52.444;13.556;2022-10-29T17:20:08;17.48;;;11.13;;
7051;SDS011;3567;52.444;13.556;2022-10-29T17:22:34;23.73;;;14.77;;
7051;SDS011;3567;52.444;13.556;2022-10-29T17:24:59;22.02;;;13.52;;
7051;SDS011;3567;52.444;13.556;2022-10-29T17:27:25;17.55;;;12.32;;
7051;SDS011;3567;52.444;13.556;2022-10-29T17:29:50;16.38;;;12.02;;
7051;SDS011;3567;52.444;13.556;2022-10-29T17:32:16;19.67;;;11.80;;
7051;SDS011;3567;52.444;13.556;2022-10-29T17:34:41;15.45;;;11.55;;
7051;SDS011;3567;52.444;13.556;2022-10-29T17:37:07;26.83;;;16.45;;
7051;SDS011;3567;52.444;13.556;2022-10-29T17:39:33;29.48;;;19.10;;
7051;SDS011;3567;52.444;13.556;2022-10-29T17:41:58;23.38;;;15.35;;
7051;SDS011;3567;52.444;13.556;2022-10-29T17:44:24;22.83;;;16.70;;
7051;SDS011;3567;52.444;13.556;2022-10-29T17:46:53;23.98;;;14.00;;